sensor_id;sensor_type;location;lat;lon;timestamp;P1;durP1;ratioP1;P2;durP2;ratioP2
13439;SDS011;6792;57.698;11.946;2024-02-16T00:00:26;0.20;;;0.20;;
13439;SDS011;6792;57.698;11.946;2024-02-16T00:02:55;0.33;;;0.33;;
13439;SDS011;6792;57.698;11.946;2024-02-16T00:05:25;0.30;;;0.30;;
13439;SDS011;6792;57.698;11.946;2024-02-16T00:07:54;0.30;;;0.30;;
13439;SDS011;6792;57.698;11.946;2024-02-16T00:10:24;0.10;;;0.10;;
13439;SDS011;6792;57.698;11.946;2024-02-16T00:12:53;0.13;;;0.13;;
13439;SDS011;6792;57.698;11.946;2024-02-16T00:15:22;0.10;;;0.10;;
13439;SDS011;6792;57.698;11.946;2024-02-16T00:17:51;0.10;;;0.10;;
13439;SDS011;6792;57.698;11.946;2024-02-16T00:20:20;0.20;;;0.10;;
13439;SDS011;6792;57.698;11.946;2024-02-16T00:22:50;0.10;;;0.10;;
13439;SDS011;6792;57.698;11.946;2024-02-16T00:25:19;0.20;;;0.20;;
13439;SDS011;6792;57.698;11.946;2024-02-16T00:27:48;0.30;;;0.20;;
13439;SDS011;6792;57.698;11.946;2024-02-16T00:30:19;0.10;;;0.10;;
13439;SDS011;6792;57.698;11.946;2024-02-16T00:32:49;0.23;;;0.20;;
13439;SDS011;6792;57.698;11.946;2024-02-16T00:35:19;0.10;;;0.10;;
13439;SDS011;6792;57.698;11.946;2024-02-16T00:37:48;0.30;;;0.10;;
13439;SDS011;6792;57.698;11.946;2024-02-16T00:40:17;0.60;;;0.10;;
13439;SDS011;6792;57.698;11.946;2024-02-16T00:42:46;0.40;;;0.20;;
13439;SDS011;6792;57.698;11.946;2024-02-16T00:45:15;0.00;;;0.00;;
13439;SDS011;6792;57.698;11.946;2024-02-16T00:47:44;1.13;;;0.20;;
13439;SDS011;6792;57.698;11.946;2024-02-16T00:50:15;0.00;;;0.00;;
13439;SDS011;6792;57.698;11.946;2024-02-16T00:52:44;0.30;;;0.10;;
13439;SDS011;6792;57.698;11.946;2024-02-16T00:55:13;0.10;;;0.10;;
13439;SDS011;6792;57.698;11.946;2024-02-16T00:57:42;0.10;;;0.10;;
13439;SDS011;6792;57.698;11.946;2024-02-16T01:00:13;0.00;;;0.00;;
13439;SDS011;6792;57.698;11.946;2024-02-16T01:02:43;0.97;;;0.10;;
13439;SDS011;6792;57.698;11.946;2024-02-16T01:05:12;0.00;;;0.00;;
13439;SDS011;6792;57.698;11.946;2024-02-16T01:07:42;0.93;;;0.00;;
13439;SDS011;6792;57.698;11.946;2024-02-16T01:10:12;0.10;;;0.10;;
13439;SDS011;6792;57.698;11.946;2024-02-16T01:15:20;0.27;;;0.10;;
13439;SDS011;6792;57.698;11.946;2024-02-16T01:17:49;0.00;;;0.00;;
13439;SDS011;6792;57.698;11.946;2024-02-16T01:20:19;0.10;;;0.10;;
13439;SDS011;6792;57.698;11.946;2024-02-16T01:22:48;0.10;;;0.10;;
13439;SDS011;6792;57.698;11.946;2024-02-16T01:25:17;0.17;;;0.10;;
13439;SDS011;6792;57.698;11.946;2024-02-16T01:27:46;0.20;;;0.20;;
13439;SDS011;6792;57.698;11.946;2024-02-16T01:30:15;0.00;;;0.00;;
13439;SDS011;6792;57.698;11.946;2024-02-16T01:32:46;0.10;;;0.10;;
13439;SDS011;6792;57.698;11.946;2024-02-16T01:35:15;0.00;;;0.00;;
13439;SDS011;6792;57.698;11.946;2024-02-16T01:37:44;0.10;;;0.10;;
13439;SDS011;6792;57.698;11.946;2024-02-16T01:40:14;0.10;;;0.10;;
13439;SDS011;6792;57.698;11.946;2024-02-16T01:42:44;0.20;;;0.20;;
13439;SDS011;6792;57.698;11.946;2024-02-16T01:45:14;0.20;;;0.20;;
13439;SDS011;6792;57.698;11.946;2024-02-16T01:47:43;0.30;;;0.30;;
13439;SDS011;6792;57.698;11.946;2024-02-16T01:50:15;0.40;;;0.40;;
13439;SDS011;6792;57.698;11.946;2024-02-16T01:52:45;0.40;;;0.37;;
13439;SDS011;6792;57.698;11.946;2024-02-16T01:55:15;0.50;;;0.50;;
13439;SDS011;6792;57.698;11.946;2024-02-16T01:57:45;0.60;;;0.57;;
13439;SDS011;6792;57.698;11.946;2024-02-16T02:00:15;0.87;;;0.80;;
13439;SDS011;6792;57.698;11.946;2024-02-16T02:02:45;0.93;;;0.93;;
13439;SDS011;6792;57.698;11.946;2024-02-16T02:05:14;0.70;;;0.70;;
13439;SDS011;6792;57.698;11.946;2024-02-16T02:07:43;0.70;;;0.70;;
13439;SDS011;6792;57.698;11.946;2024-02-16T02:10:13;1.17;;;0.80;;
13439;SDS011;6792;57.698;11.946;2024-02-16T02:12:42;0.67;;;0.67;;
13439;SDS011;6792;57.698;11.946;2024-02-16T02:15:12;1.80;;;0.90;;
13439;SDS011;6792;57.698;11.946;2024-02-16T02:17:42;1.20;;;1.10;;
13439;SDS011;6792;57.698;11.946;2024-02-16T02:20:11;0.90;;;0.90;;
13439;SDS011;6792;57.698;11.946;2024-02-16T02:22:41;1.07;;;0.97;;
13439;SDS011;6792;57.698;11.946;2024-02-16T02:25:10;1.30;;;1.20;;
13439;SDS011;6792;57.698;11.946;2024-02-16T02:27:39;1.70;;;1.40;;
13439;SDS011;6792;57.698;11.946;2024-02-16T02:30:09;2.00;;;1.40;;
13439;SDS011;6792;57.698;11.946;2024-02-16T02:32:39;1.23;;;1.13;;
13439;SDS011;6792;57.698;11.946;2024-02-16T02:35:10;1.40;;;1.20;;
13439;SDS011;6792;57.698;11.946;2024-02-16T02:37:40;0.90;;;0.90;;
13439;SDS011;6792;57.698;11.946;2024-02-16T02:40:10;0.80;;;0.80;;
13439;SDS011;6792;57.698;11.946;2024-02-16T02:42:40;1.10;;;1.00;;
13439;SDS011;6792;57.698;11.946;2024-02-16T02:45:10;2.40;;;0.80;;
13439;SDS011;6792;57.698;11.946;2024-02-16T02:47:39;0.90;;;0.90;;
13439;SDS011;6792;57.698;11.946;2024-02-16T02:50:09;1.57;;;1.37;;
13439;SDS011;6792;57.698;11.946;2024-02-16T02:52:38;1.00;;;0.90;;
13439;SDS011;6792;57.698;11.946;2024-02-16T02:55:08;1.27;;;1.13;;
13439;SDS011;6792;57.698;11.946;2024-02-16T02:57:40;1.07;;;0.93;;
13439;SDS011;6792;57.698;11.946;2024-02-16T03:00:11;1.40;;;1.30;;
13439;SDS011;6792;57.698;11.946;2024-02-16T03:02:41;1.27;;;1.17;;
13439;SDS011;6792;57.698;11.946;2024-02-16T03:05:11;1.07;;;0.97;;
13439;SDS011;6792;57.698;11.946;2024-02-16T03:07:39;1.40;;;1.30;;
13439;SDS011;6792;57.698;11.946;2024-02-16T03:10:09;1.40;;;1.30;;
13439;SDS011;6792;57.698;11.946;2024-02-16T03:12:40;1.60;;;1.50;;
13439;SDS011;6792;57.698;11.946;2024-02-16T03:15:10;1.50;;;1.40;;
13439;SDS011;6792;57.698;11.946;2024-02-16T03:17:39;1.50;;;1.30;;
13439;SDS011;6792;57.698;11.946;2024-02-16T03:20:10;1.67;;;1.50;;
13439;SDS011;6792;57.698;11.946;2024-02-16T03:22:39;1.27;;;1.17;;
13439;SDS011;6792;57.698;11.946;2024-02-16T03:25:10;2.30;;;1.23;;
13439;SDS011;6792;57.698;11.946;2024-02-16T03:27:42;2.87;;;1.53;;
13439;SDS011;6792;57.698;11.946;2024-02-16T03:30:12;3.43;;;2.20;;
13439;SDS011;6792;57.698;11.946;2024-02-16T03:32:42;3.40;;;2.33;;
13439;SDS011;6792;57.698;11.946;2024-02-16T03:35:12;4.67;;;2.57;;
13439;SDS011;6792;57.698;11.946;2024-02-16T03:37:41;5.30;;;3.00;;
13439;SDS011;6792;57.698;11.946;2024-02-16T03:40:11;5.37;;;3.17;;
13439;SDS011;6792;57.698;11.946;2024-02-16T03:42:40;6.00;;;3.30;;
13439;SDS011;6792;57.698;11.946;2024-02-16T03:45:11;6.07;;;3.67;;
13439;SDS011;6792;57.698;11.946;2024-02-16T03:47:40;6.57;;;3.80;;
13439;SDS011;6792;57.698;11.946;2024-02-16T03:50:10;6.83;;;4.30;;
13439;SDS011;6792;57.698;11.946;2024-02-16T03:52:41;9.07;;;4.63;;
13439;SDS011;6792;57.698;11.946;2024-02-16T03:55:11;8.03;;;4.40;;
13439;SDS011;6792;57.698;11.946;2024-02-16T03:57:43;7.70;;;3.97;;
13439;SDS011;6792;57.698;11.946;2024-02-16T04:00:14;11.63;;;4.03;;
13439;SDS011;6792;57.698;11.946;2024-02-16T04:02:43;6.57;;;3.83;;
13439;SDS011;6792;57.698;11.946;2024-02-16T04:05:12;8.53;;;3.80;;
13439;SDS011;6792;57.698;11.946;2024-02-16T04:07:42;9.47;;;4.73;;
13439;SDS011;6792;57.698;11.946;2024-02-16T04:10:11;10.17;;;4.77;;
13439;SDS011;6792;57.698;11.946;2024-02-16T04:12:40;16.47;;;5.00;;
13439;SDS011;6792;57.698;11.946;2024-02-16T04:15:09;9.23;;;4.90;;
13439;SDS011;6792;57.698;11.946;2024-02-16T04:17:39;14.57;;;4.83;;
13439;SDS011;6792;57.698;11.946;2024-02-16T04:20:09;11.97;;;4.87;;
13439;SDS011;6792;57.698;11.946;2024-02-16T04:22:39;12.60;;;5.23;;
13439;SDS011;6792;57.698;11.946;2024-02-16T04:25:08;11.70;;;5.40;;
13439;SDS011;6792;57.698;11.946;2024-02-16T04:27:37;11.47;;;4.80;;
13439;SDS011;6792;57.698;11.946;2024-02-16T04:30:07;11.33;;;5.30;;
13439;SDS011;6792;57.698;11.946;2024-02-16T04:32:37;12.47;;;5.70;;
13439;SDS011;6792;57.698;11.946;2024-02-16T04:35:10;11.57;;;5.83;;
13439;SDS011;6792;57.698;11.946;2024-02-16T04:37:43;10.77;;;5.80;;
13439;SDS011;6792;57.698;11.946;2024-02-16T04:40:12;10.67;;;5.53;;
13439;SDS011;6792;57.698;11.946;2024-02-16T04:42:42;10.53;;;5.67;;
13439;SDS011;6792;57.698;11.946;2024-02-16T04:45:11;13.57;;;5.47;;
13439;SDS011;6792;57.698;11.946;2024-02-16T04:47:40;10.20;;;5.63;;
13439;SDS011;6792;57.698;11.946;2024-02-16T04:50:09;9.97;;;5.40;;
13439;SDS011;6792;57.698;11.946;2024-02-16T04:52:40;9.80;;;5.73;;
13439;SDS011;6792;57.698;11.946;2024-02-16T04:55:10;9.65;;;5.15;;
13439;SDS011;6792;57.698;11.946;2024-02-16T04:57:39;8.03;;;5.08;;
13439;SDS011;6792;57.698;11.946;2024-02-16T05:00:09;10.77;;;5.43;;
13439;SDS011;6792;57.698;11.946;2024-02-16T05:02:40;9.13;;;5.00;;
13439;SDS011;6792;57.698;11.946;2024-02-16T05:05:16;8.90;;;5.00;;
13439;SDS011;6792;57.698;11.946;2024-02-16T05:07:47;8.23;;;4.80;;
13439;SDS011;6792;57.698;11.946;2024-02-16T05:10:17;9.07;;;5.30;;
13439;SDS011;6792;57.698;11.946;2024-02-16T05:12:46;12.40;;;5.27;;
13439;SDS011;6792;57.698;11.946;2024-02-16T05:15:15;9.87;;;5.63;;
13439;SDS011;6792;57.698;11.946;2024-02-16T05:17:47;10.80;;;5.58;;
13439;SDS011;6792;57.698;11.946;2024-02-16T05:20:16;10.20;;;5.13;;
13439;SDS011;6792;57.698;11.946;2024-02-16T05:22:46;9.68;;;5.15;;
13439;SDS011;6792;57.698;11.946;2024-02-16T05:25:15;8.97;;;5.00;;
13439;SDS011;6792;57.698;11.946;2024-02-16T05:27:45;8.38;;;4.50;;
13439;SDS011;6792;57.698;11.946;2024-02-16T05:30:14;11.20;;;5.13;;
13439;SDS011;6792;57.698;11.946;2024-02-16T05:32:43;8.50;;;4.40;;
13439;SDS011;6792;57.698;11.946;2024-02-16T05:35:13;7.93;;;4.23;;
13439;SDS011;6792;57.698;11.946;2024-02-16T05:37:43;6.23;;;4.00;;
13439;SDS011;6792;57.698;11.946;2024-02-16T05:40:15;8.37;;;4.80;;
13439;SDS011;6792;57.698;11.946;2024-02-16T05:42:50;8.17;;;4.70;;
13439;SDS011;6792;57.698;11.946;2024-02-16T05:45:20;7.03;;;4.53;;
13439;SDS011;6792;57.698;11.946;2024-02-16T05:47:49;7.35;;;4.35;;
13439;SDS011;6792;57.698;11.946;2024-02-16T05:50:19;7.07;;;3.80;;
13439;SDS011;6792;57.698;11.946;2024-02-16T05:52:49;6.40;;;3.77;;
13439;SDS011;6792;57.698;11.946;2024-02-16T05:55:18;5.37;;;3.57;;
13439;SDS011;6792;57.698;11.946;2024-02-16T05:57:47;7.05;;;3.65;;
13439;SDS011;6792;57.698;11.946;2024-02-16T06:00:16;5.87;;;3.57;;
13439;SDS011;6792;57.698;11.946;2024-02-16T06:02:48;6.07;;;3.70;;
13439;SDS011;6792;57.698;11.946;2024-02-16T06:05:24;3.87;;;2.60;;
13439;SDS011;6792;57.698;11.946;2024-02-16T06:07:54;5.03;;;2.90;;
13439;SDS011;6792;57.698;11.946;2024-02-16T06:10:23;3.50;;;2.20;;
13439;SDS011;6792;57.698;11.946;2024-02-16T06:12:52;3.67;;;2.77;;
13439;SDS011;6792;57.698;11.946;2024-02-16T06:15:21;3.80;;;2.40;;
13439;SDS011;6792;57.698;11.946;2024-02-16T06:17:50;2.97;;;2.00;;
13439;SDS011;6792;57.698;11.946;2024-02-16T06:20:19;2.50;;;2.10;;
13439;SDS011;6792;57.698;11.946;2024-02-16T06:22:48;4.23;;;2.03;;
13439;SDS011;6792;57.698;11.946;2024-02-16T06:25:17;2.67;;;2.43;;
13439;SDS011;6792;57.698;11.946;2024-02-16T06:27:47;2.93;;;2.27;;
13439;SDS011;6792;57.698;11.946;2024-02-16T06:30:16;4.17;;;2.60;;
13439;SDS011;6792;57.698;11.946;2024-02-16T06:32:45;2.70;;;2.30;;
13439;SDS011;6792;57.698;11.946;2024-02-16T06:35:14;5.23;;;2.90;;
13439;SDS011;6792;57.698;11.946;2024-02-16T06:37:44;4.15;;;2.37;;
13439;SDS011;6792;57.698;11.946;2024-02-16T06:40:13;3.20;;;2.10;;
13439;SDS011;6792;57.698;11.946;2024-02-16T06:42:43;2.93;;;1.70;;
13439;SDS011;6792;57.698;11.946;2024-02-16T06:45:15;1.90;;;1.70;;
13439;SDS011;6792;57.698;11.946;2024-02-16T06:47:44;2.60;;;2.02;;
13439;SDS011;6792;57.698;11.946;2024-02-16T06:50:13;3.97;;;2.60;;
13439;SDS011;6792;57.698;11.946;2024-02-16T06:52:42;3.40;;;2.13;;
13439;SDS011;6792;57.698;11.946;2024-02-16T06:55:11;3.60;;;2.67;;
13439;SDS011;6792;57.698;11.946;2024-02-16T06:57:40;3.95;;;2.37;;
13439;SDS011;6792;57.698;11.946;2024-02-16T07:00:11;3.93;;;2.40;;
13439;SDS011;6792;57.698;11.946;2024-02-16T07:02:42;4.23;;;2.90;;
13439;SDS011;6792;57.698;11.946;2024-02-16T07:05:11;4.57;;;3.50;;
13439;SDS011;6792;57.698;11.946;2024-02-16T07:07:41;4.22;;;3.02;;
13439;SDS011;6792;57.698;11.946;2024-02-16T07:10:10;4.70;;;3.37;;
13439;SDS011;6792;57.698;11.946;2024-02-16T07:12:40;5.53;;;4.23;;
13439;SDS011;6792;57.698;11.946;2024-02-16T07:15:09;6.93;;;4.30;;
13439;SDS011;6792;57.698;11.946;2024-02-16T07:17:38;7.90;;;4.73;;
13439;SDS011;6792;57.698;11.946;2024-02-16T07:20:08;7.63;;;4.70;;
13439;SDS011;6792;57.698;11.946;2024-02-16T07:25:28;7.90;;;5.20;;
13439;SDS011;6792;57.698;11.946;2024-02-16T07:27:57;7.63;;;5.00;;
13439;SDS011;6792;57.698;11.946;2024-02-16T07:30:27;7.43;;;5.03;;
13439;SDS011;6792;57.698;11.946;2024-02-16T07:32:56;8.23;;;5.37;;
13439;SDS011;6792;57.698;11.946;2024-02-16T07:35:25;8.43;;;4.70;;
13439;SDS011;6792;57.698;11.946;2024-02-16T07:37:54;10.30;;;5.13;;
13439;SDS011;6792;57.698;11.946;2024-02-16T07:40:23;7.33;;;4.80;;
13439;SDS011;6792;57.698;11.946;2024-02-16T07:42:52;7.00;;;5.13;;
13439;SDS011;6792;57.698;11.946;2024-02-16T07:45:21;8.25;;;4.78;;
13439;SDS011;6792;57.698;11.946;2024-02-16T07:47:50;6.05;;;4.45;;
13439;SDS011;6792;57.698;11.946;2024-02-16T07:50:20;7.13;;;4.50;;
13439;SDS011;6792;57.698;11.946;2024-02-16T07:52:49;5.83;;;4.07;;
13439;SDS011;6792;57.698;11.946;2024-02-16T07:55:18;5.62;;;3.85;;
13439;SDS011;6792;57.698;11.946;2024-02-16T07:57:49;7.23;;;4.40;;
13439;SDS011;6792;57.698;11.946;2024-02-16T08:00:18;8.50;;;4.43;;
13439;SDS011;6792;57.698;11.946;2024-02-16T08:02:48;6.40;;;4.42;;
13439;SDS011;6792;57.698;11.946;2024-02-16T08:05:17;7.00;;;4.37;;
13439;SDS011;6792;57.698;11.946;2024-02-16T08:07:46;5.12;;;3.60;;
13439;SDS011;6792;57.698;11.946;2024-02-16T08:10:18;5.58;;;4.17;;
13439;SDS011;6792;57.698;11.946;2024-02-16T08:12:48;5.50;;;4.00;;
13439;SDS011;6792;57.698;11.946;2024-02-16T08:15:18;5.70;;;4.25;;
13439;SDS011;6792;57.698;11.946;2024-02-16T08:17:50;6.40;;;4.70;;
13439;SDS011;6792;57.698;11.946;2024-02-16T08:20:19;7.17;;;5.42;;
13439;SDS011;6792;57.698;11.946;2024-02-16T08:22:49;7.00;;;4.60;;
13439;SDS011;6792;57.698;11.946;2024-02-16T08:25:18;7.17;;;4.97;;
13439;SDS011;6792;57.698;11.946;2024-02-16T08:27:47;6.93;;;4.77;;
13439;SDS011;6792;57.698;11.946;2024-02-16T08:30:17;7.10;;;5.03;;
13439;SDS011;6792;57.698;11.946;2024-02-16T08:32:46;9.73;;;5.37;;
13439;SDS011;6792;57.698;11.946;2024-02-16T08:35:15;8.93;;;5.53;;
13439;SDS011;6792;57.698;11.946;2024-02-16T08:37:45;9.53;;;5.70;;
13439;SDS011;6792;57.698;11.946;2024-02-16T08:40:14;10.05;;;5.53;;
13439;SDS011;6792;57.698;11.946;2024-02-16T08:42:43;6.05;;;5.45;;
13439;SDS011;6792;57.698;11.946;2024-02-16T08:45:13;13.80;;;6.05;;
13439;SDS011;6792;57.698;11.946;2024-02-16T08:47:43;7.10;;;5.70;;
13439;SDS011;6792;57.698;11.946;2024-02-16T08:50:12;7.50;;;5.35;;
13439;SDS011;6792;57.698;11.946;2024-02-16T08:52:52;8.73;;;5.97;;
13439;SDS011;6792;57.698;11.946;2024-02-16T08:55:21;7.83;;;6.17;;
13439;SDS011;6792;57.698;11.946;2024-02-16T08:57:50;8.83;;;6.67;;
13439;SDS011;6792;57.698;11.946;2024-02-16T09:00:20;8.53;;;5.97;;
13439;SDS011;6792;57.698;11.946;2024-02-16T09:02:49;10.65;;;6.60;;
13439;SDS011;6792;57.698;11.946;2024-02-16T09:05:20;9.65;;;6.45;;
13439;SDS011;6792;57.698;11.946;2024-02-16T09:07:49;7.80;;;6.03;;
13439;SDS011;6792;57.698;11.946;2024-02-16T09:10:18;8.75;;;5.62;;
13439;SDS011;6792;57.698;11.946;2024-02-16T09:12:47;8.48;;;5.83;;
13439;SDS011;6792;57.698;11.946;2024-02-16T09:15:18;7.27;;;5.70;;
13439;SDS011;6792;57.698;11.946;2024-02-16T09:17:47;8.68;;;6.97;;
13439;SDS011;6792;57.698;11.946;2024-02-16T09:20:16;9.88;;;6.33;;
13439;SDS011;6792;57.698;11.946;2024-02-16T09:22:48;8.03;;;6.12;;
13439;SDS011;6792;57.698;11.946;2024-02-16T09:25:17;9.37;;;6.00;;
13439;SDS011;6792;57.698;11.946;2024-02-16T09:27:46;7.65;;;6.20;;
13439;SDS011;6792;57.698;11.946;2024-02-16T09:30:15;12.53;;;6.33;;
13439;SDS011;6792;57.698;11.946;2024-02-16T09:32:44;9.50;;;6.50;;
13439;SDS011;6792;57.698;11.946;2024-02-16T09:35:13;10.78;;;6.80;;
13439;SDS011;6792;57.698;11.946;2024-02-16T09:37:43;10.80;;;6.80;;
13439;SDS011;6792;57.698;11.946;2024-02-16T09:40:12;12.68;;;6.70;;
13439;SDS011;6792;57.698;11.946;2024-02-16T09:42:41;13.95;;;6.83;;
13439;SDS011;6792;57.698;11.946;2024-02-16T09:45:12;9.98;;;6.80;;
13439;SDS011;6792;57.698;11.946;2024-02-16T09:47:43;12.47;;;6.80;;
13439;SDS011;6792;57.698;11.946;2024-02-16T09:50:14;11.83;;;7.15;;
13439;SDS011;6792;57.698;11.946;2024-02-16T09:52:46;9.95;;;6.83;;
13439;SDS011;6792;57.698;11.946;2024-02-16T09:55:15;9.28;;;6.83;;
13439;SDS011;6792;57.698;11.946;2024-02-16T09:57:45;9.45;;;6.60;;
13439;SDS011;6792;57.698;11.946;2024-02-16T10:00:15;12.95;;;7.42;;
13439;SDS011;6792;57.698;11.946;2024-02-16T10:02:45;11.18;;;7.33;;
13439;SDS011;6792;57.698;11.946;2024-02-16T10:05:15;11.20;;;6.77;;
13439;SDS011;6792;57.698;11.946;2024-02-16T10:07:46;9.58;;;6.87;;
13439;SDS011;6792;57.698;11.946;2024-02-16T10:10:22;10.27;;;7.20;;
13439;SDS011;6792;57.698;11.946;2024-02-16T10:13:00;11.30;;;7.45;;
13439;SDS011;6792;57.698;11.946;2024-02-16T10:15:30;12.20;;;7.95;;
13439;SDS011;6792;57.698;11.946;2024-02-16T10:18:00;14.28;;;8.18;;
13439;SDS011;6792;57.698;11.946;2024-02-16T10:20:30;12.63;;;8.58;;
13439;SDS011;6792;57.698;11.946;2024-02-16T10:23:04;14.25;;;8.68;;
13439;SDS011;6792;57.698;11.946;2024-02-16T10:25:35;12.43;;;8.00;;
13439;SDS011;6792;57.698;11.946;2024-02-16T10:28:06;15.43;;;8.40;;
13439;SDS011;6792;57.698;11.946;2024-02-16T10:30:36;11.65;;;8.23;;
13439;SDS011;6792;57.698;11.946;2024-02-16T10:33:07;15.78;;;8.93;;
13439;SDS011;6792;57.698;11.946;2024-02-16T10:35:37;11.88;;;8.40;;
13439;SDS011;6792;57.698;11.946;2024-02-16T10:38:07;14.20;;;8.35;;
13439;SDS011;6792;57.698;11.946;2024-02-16T10:40:38;13.32;;;8.83;;
13439;SDS011;6792;57.698;11.946;2024-02-16T10:43:08;12.98;;;8.35;;
13439;SDS011;6792;57.698;11.946;2024-02-16T10:45:38;14.85;;;8.15;;
13439;SDS011;6792;57.698;11.946;2024-02-16T10:48:08;12.73;;;8.38;;
13439;SDS011;6792;57.698;11.946;2024-02-16T10:50:37;10.75;;;7.45;;
13439;SDS011;6792;57.698;11.946;2024-02-16T10:53:08;11.77;;;7.57;;
13439;SDS011;6792;57.698;11.946;2024-02-16T10:55:39;9.55;;;7.37;;
13439;SDS011;6792;57.698;11.946;2024-02-16T10:58:11;11.88;;;7.60;;
13439;SDS011;6792;57.698;11.946;2024-02-16T11:00:53;13.63;;;7.80;;
13439;SDS011;6792;57.698;11.946;2024-02-16T11:03:23;12.50;;;7.87;;
13439;SDS011;6792;57.698;11.946;2024-02-16T11:05:54;10.53;;;7.72;;
13439;SDS011;6792;57.698;11.946;2024-02-16T11:08:25;12.47;;;8.05;;
13439;SDS011;6792;57.698;11.946;2024-02-16T11:10:55;10.40;;;7.22;;
13439;SDS011;6792;57.698;11.946;2024-02-16T11:13:25;12.98;;;8.15;;
13439;SDS011;6792;57.698;11.946;2024-02-16T11:15:57;10.15;;;7.40;;
13439;SDS011;6792;57.698;11.946;2024-02-16T11:18:27;10.48;;;7.65;;
13439;SDS011;6792;57.698;11.946;2024-02-16T11:21:00;11.75;;;7.97;;
13439;SDS011;6792;57.698;11.946;2024-02-16T11:23:30;12.43;;;7.23;;
13439;SDS011;6792;57.698;11.946;2024-02-16T11:26:03;10.43;;;7.45;;
13439;SDS011;6792;57.698;11.946;2024-02-16T11:28:35;10.10;;;6.87;;
13439;SDS011;6792;57.698;11.946;2024-02-16T11:31:05;12.40;;;7.83;;
13439;SDS011;6792;57.698;11.946;2024-02-16T11:33:34;10.97;;;7.70;;
13439;SDS011;6792;57.698;11.946;2024-02-16T11:36:04;12.67;;;7.63;;
13439;SDS011;6792;57.698;11.946;2024-02-16T11:38:35;11.63;;;7.93;;
13439;SDS011;6792;57.698;11.946;2024-02-16T11:41:05;13.37;;;7.20;;
13439;SDS011;6792;57.698;11.946;2024-02-16T11:43:35;11.33;;;7.40;;
13439;SDS011;6792;57.698;11.946;2024-02-16T11:46:13;9.83;;;7.25;;
13439;SDS011;6792;57.698;11.946;2024-02-16T11:48:44;11.93;;;7.42;;
13439;SDS011;6792;57.698;11.946;2024-02-16T11:51:14;10.68;;;7.12;;
13439;SDS011;6792;57.698;11.946;2024-02-16T11:53:44;9.83;;;7.57;;
13439;SDS011;6792;57.698;11.946;2024-02-16T11:56:21;12.60;;;7.50;;
13439;SDS011;6792;57.698;11.946;2024-02-16T11:58:51;9.17;;;6.50;;
13439;SDS011;6792;57.698;11.946;2024-02-16T12:01:21;10.23;;;7.10;;
13439;SDS011;6792;57.698;11.946;2024-02-16T12:03:51;10.05;;;7.12;;
13439;SDS011;6792;57.698;11.946;2024-02-16T12:06:20;10.77;;;6.30;;
13439;SDS011;6792;57.698;11.946;2024-02-16T12:08:50;8.68;;;6.60;;
13439;SDS011;6792;57.698;11.946;2024-02-16T12:11:19;9.05;;;6.80;;
13439;SDS011;6792;57.698;11.946;2024-02-16T12:13:50;8.75;;;6.10;;
13439;SDS011;6792;57.698;11.946;2024-02-16T12:16:19;7.87;;;5.90;;
13439;SDS011;6792;57.698;11.946;2024-02-16T12:18:48;7.15;;;5.78;;
13439;SDS011;6792;57.698;11.946;2024-02-16T12:21:17;9.15;;;6.28;;
13439;SDS011;6792;57.698;11.946;2024-02-16T12:23:47;9.58;;;6.72;;
13439;SDS011;6792;57.698;11.946;2024-02-16T12:26:16;11.25;;;6.85;;
13439;SDS011;6792;57.698;11.946;2024-02-16T12:28:45;10.07;;;6.87;;
13439;SDS011;6792;57.698;11.946;2024-02-16T12:31:19;10.55;;;6.33;;
13439;SDS011;6792;57.698;11.946;2024-02-16T12:33:47;12.37;;;7.23;;
13439;SDS011;6792;57.698;11.946;2024-02-16T12:36:16;10.23;;;7.17;;
13439;SDS011;6792;57.698;11.946;2024-02-16T12:38:45;10.45;;;6.62;;
13439;SDS011;6792;57.698;11.946;2024-02-16T12:41:14;10.78;;;6.97;;
13439;SDS011;6792;57.698;11.946;2024-02-16T12:43:43;11.33;;;6.65;;
13439;SDS011;6792;57.698;11.946;2024-02-16T12:46:21;6.85;;;5.78;;
13439;SDS011;6792;57.698;11.946;2024-02-16T12:48:51;8.55;;;6.42;;
13439;SDS011;6792;57.698;11.946;2024-02-16T12:51:20;8.70;;;6.20;;
13439;SDS011;6792;57.698;11.946;2024-02-16T12:53:49;8.63;;;6.35;;
13439;SDS011;6792;57.698;11.946;2024-02-16T12:56:19;9.00;;;5.75;;
13439;SDS011;6792;57.698;11.946;2024-02-16T12:58:48;7.50;;;5.58;;
13439;SDS011;6792;57.698;11.946;2024-02-16T13:01:17;8.95;;;6.37;;
13439;SDS011;6792;57.698;11.946;2024-02-16T13:03:47;8.95;;;5.78;;
13439;SDS011;6792;57.698;11.946;2024-02-16T13:06:16;7.30;;;5.50;;
13439;SDS011;6792;57.698;11.946;2024-02-16T13:08:45;7.28;;;5.45;;
13439;SDS011;6792;57.698;11.946;2024-02-16T13:11:15;5.80;;;5.20;;
13439;SDS011;6792;57.698;11.946;2024-02-16T13:13:44;6.10;;;5.50;;
13439;SDS011;6792;57.698;11.946;2024-02-16T13:16:13;7.22;;;5.42;;
13439;SDS011;6792;57.698;11.946;2024-02-16T13:18:42;5.40;;;4.60;;
13439;SDS011;6792;57.698;11.946;2024-02-16T13:21:12;5.67;;;5.07;;
13439;SDS011;6792;57.698;11.946;2024-02-16T13:23:42;5.70;;;4.78;;
13439;SDS011;6792;57.698;11.946;2024-02-16T13:26:11;7.70;;;5.28;;
13439;SDS011;6792;57.698;11.946;2024-02-16T13:28:41;4.25;;;3.85;;
13439;SDS011;6792;57.698;11.946;2024-02-16T13:31:10;5.92;;;3.80;;
13439;SDS011;6792;57.698;11.946;2024-02-16T13:33:39;5.53;;;3.63;;
13439;SDS011;6792;57.698;11.946;2024-02-16T13:36:08;4.95;;;4.05;;
13439;SDS011;6792;57.698;11.946;2024-02-16T13:38:37;4.87;;;3.67;;
13439;SDS011;6792;57.698;11.946;2024-02-16T13:41:06;7.03;;;4.37;;
13439;SDS011;6792;57.698;11.946;2024-02-16T13:43:47;5.28;;;3.90;;
13439;SDS011;6792;57.698;11.946;2024-02-16T13:46:17;6.47;;;3.67;;
13439;SDS011;6792;57.698;11.946;2024-02-16T13:48:46;5.55;;;3.85;;
13439;SDS011;6792;57.698;11.946;2024-02-16T13:51:15;3.65;;;3.27;;
13439;SDS011;6792;57.698;11.946;2024-02-16T13:53:44;6.05;;;3.65;;
13439;SDS011;6792;57.698;11.946;2024-02-16T13:56:13;4.87;;;3.67;;
13439;SDS011;6792;57.698;11.946;2024-02-16T13:58:42;4.90;;;3.90;;
13439;SDS011;6792;57.698;11.946;2024-02-16T14:01:13;5.60;;;4.20;;
13439;SDS011;6792;57.698;11.946;2024-02-16T14:03:42;5.40;;;4.12;;
13439;SDS011;6792;57.698;11.946;2024-02-16T14:06:11;5.78;;;4.45;;
13439;SDS011;6792;57.698;11.946;2024-02-16T14:08:40;5.60;;;4.70;;
13439;SDS011;6792;57.698;11.946;2024-02-16T14:11:11;5.73;;;4.60;;
13439;SDS011;6792;57.698;11.946;2024-02-16T14:13:40;7.53;;;4.73;;
13439;SDS011;6792;57.698;11.946;2024-02-16T14:16:11;6.63;;;5.30;;
13439;SDS011;6792;57.698;11.946;2024-02-16T14:18:40;6.20;;;5.50;;
13439;SDS011;6792;57.698;11.946;2024-02-16T14:21:09;5.28;;;4.78;;
13439;SDS011;6792;57.698;11.946;2024-02-16T14:23:38;8.88;;;5.90;;
13439;SDS011;6792;57.698;11.946;2024-02-16T14:26:07;8.90;;;5.40;;
13439;SDS011;6792;57.698;11.946;2024-02-16T14:28:37;6.83;;;5.08;;
13439;SDS011;6792;57.698;11.946;2024-02-16T14:31:06;6.60;;;5.13;;
13439;SDS011;6792;57.698;11.946;2024-02-16T14:33:36;6.05;;;5.30;;
13439;SDS011;6792;57.698;11.946;2024-02-16T14:36:06;5.83;;;5.07;;
13439;SDS011;6792;57.698;11.946;2024-02-16T14:38:37;5.33;;;4.33;;
13439;SDS011;6792;57.698;11.946;2024-02-16T14:41:06;7.67;;;5.35;;
13439;SDS011;6792;57.698;11.946;2024-02-16T14:43:36;8.13;;;5.97;;
13439;SDS011;6792;57.698;11.946;2024-02-16T14:46:05;6.63;;;5.40;;
13439;SDS011;6792;57.698;11.946;2024-02-16T14:48:35;8.93;;;5.30;;
13439;SDS011;6792;57.698;11.946;2024-02-16T14:51:04;6.70;;;5.67;;
13439;SDS011;6792;57.698;11.946;2024-02-16T14:53:33;5.93;;;5.33;;
13439;SDS011;6792;57.698;11.946;2024-02-16T14:56:03;7.95;;;5.95;;
13439;SDS011;6792;57.698;11.946;2024-02-16T14:58:33;6.17;;;5.40;;
13439;SDS011;6792;57.698;11.946;2024-02-16T15:01:02;7.83;;;5.00;;
13439;SDS011;6792;57.698;11.946;2024-02-16T15:03:31;7.47;;;4.80;;
13439;SDS011;6792;57.698;11.946;2024-02-16T15:06:01;6.03;;;4.67;;